Time;durP1;ratioP1;P1;durP2;ratioP2;P2;SDS_P1;SDS_P2;PMS_P1;PMS_P2;Temp;Humidity;BMP_temperature;BMP_pressure;BME280_temperature;BME280_humidity;BME280_pressure;Samples;Min_cycle;Max_cycle;Signal;HPM_P1;HPM_P2
2022/03/02 00:01:19;;;;;;;7.20;6.50;;;;;;;2.40;54.13;96209.31;4385379;32;20291;-63
2022/03/02 00:03:45;;;;;;;7.20;6.60;;;;;;;2.50;54.05;96213.22;4348957;32;20273;-61
2022/03/02 00:06:16;;;;;;;10.70;7.17;;;;;;;2.43;54.11;96205.47;4388419;32;20235;-59
2022/03/02 00:08:42;;;;;;;7.90;6.37;;;;;;;2.28;55.26;96207.66;4350930;32;20281;-60
2022/03/02 00:11:11;;;;;;;9.60;6.10;;;;;;;2.02;55.60;96214.78;4338589;32;20411;-60
2022/03/02 00:13:43;;;;;;;6.90;6.30;;;;;;;2.14;55.16;96211.44;4342471;32;20189;-60
2022/03/02 00:16:09;;;;;;;6.30;5.72;;;;;;;1.82;56.30;96208.94;4340028;32;20266;-60
2022/03/02 00:18:37;;;;;;;9.65;7.15;;;;;;;1.53;57.21;96207.00;4332972;32;20192;-60
2022/03/02 00:21:06;;;;;;;7.10;6.43;;;;;;;1.62;57.02;96208.34;4334855;32;20186;-60
2022/03/02 00:23:33;;;;;;;7.57;6.47;;;;;;;1.94;56.10;96201.97;4339398;32;20256;-60
2022/03/02 00:25:59;;;;;;;9.57;7.55;;;;;;;2.06;55.27;96196.84;4352910;32;20246;-60
2022/03/02 00:28:26;;;;;;;7.17;6.47;;;;;;;1.75;56.09;96187.28;4360747;32;20189;-59
2022/03/02 00:30:53;;;;;;;7.93;6.35;;;;;;;1.64;56.21;96193.22;4360539;32;20177;-60
2022/03/02 00:33:20;;;;;;;9.50;6.10;;;;;;;1.54;56.37;96190.28;4373160;32;20190;-60
2022/03/02 00:35:49;;;;;;;7.70;6.20;;;;;;;1.61;56.42;96185.81;4370032;32;20281;-60
2022/03/02 00:38:15;;;;;;;7.03;6.32;;;;;;;1.60;56.51;96178.97;4344545;32;20181;-60
2022/03/02 00:40:43;;;;;;;7.97;7.05;;;;;;;1.42;57.38;96186.78;4368669;32;20180;-60
2022/03/02 00:43:10;;;;;;;7.37;6.60;;;;;;;1.47;57.32;96173.84;4338908;32;20204;-60
2022/03/02 00:45:38;;;;;;;7.05;6.47;;;;;;;1.65;56.91;96181.75;4382947;32;20199;-60
2022/03/02 00:48:06;;;;;;;7.10;6.47;;;;;;;1.67;56.92;96174.47;4358067;32;20177;-60
2022/03/02 00:50:34;;;;;;;8.90;6.55;;;;;;;1.64;57.14;96178.34;4356495;32;20185;-60
2022/03/02 00:53:02;;;;;;;8.47;6.60;;;;;;;1.83;56.32;96171.31;4367859;32;20189;-59
2022/03/02 00:55:28;;;;;;;9.38;6.85;;;;;;;1.83;56.74;96173.13;4325155;32;20278;-60
2022/03/02 00:57:55;;;;;;;6.90;6.20;;;;;;;1.82;56.74;96161.88;4345782;32;20337;-60
2022/03/02 01:00:23;;;;;;;7.75;6.60;;;;;;;1.76;56.89;96161.94;4347912;32;20224;-59
2022/03/02 01:02:50;;;;;;;9.43;6.87;;;;;;;1.46;57.26;96161.78;4356900;32;20192;-59
2022/03/02 01:05:16;;;;;;;7.53;6.68;;;;;;;1.63;57.07;96157.63;4358750;32;20204;-60
2022/03/02 01:07:46;;;;;;;8.68;7.03;;;;;;;1.60;56.62;96163.28;4371534;32;20173;-60
2022/03/02 01:10:19;;;;;;;7.70;6.75;;;;;;;1.61;57.08;96162.28;4329967;32;20193;-59
2022/03/02 01:12:44;;;;;;;7.22;6.53;;;;;;;1.41;57.10;96153.81;4361179;32;20181;-62
2022/03/02 01:15:17;;;;;;;7.07;6.43;;;;;;;1.18;58.21;96155.22;4355494;32;20235;-60
2022/03/02 01:17:44;;;;;;;7.22;6.53;;;;;;;0.93;59.06;96146.56;4359528;32;20189;-60
2022/03/02 01:20:12;;;;;;;8.35;7.10;;;;;;;1.19;58.93;96138.53;4329374;32;20174;-60
2022/03/02 01:22:40;;;;;;;6.78;6.15;;;;;;;1.30;58.32;96134.41;4354504;32;20180;-60
2022/03/02 01:25:08;;;;;;;6.68;6.07;;;;;;;1.11;58.61;96138.00;4373895;32;20219;-60
2022/03/02 01:27:36;;;;;;;6.95;6.22;;;;;;;1.23;58.23;96137.09;4365627;32;20220;-60
2022/03/02 01:30:10;;;;;;;6.12;5.62;;;;;;;1.55;57.17;96144.84;4352354;32;20185;-60
2022/03/02 01:32:36;;;;;;;7.25;6.55;;;;;;;1.58;56.64;96142.59;4353184;32;20268;-59
2022/03/02 01:35:11;;;;;;;7.50;5.87;;;;;;;1.64;56.33;96154.81;4336339;32;20200;-60
2022/03/02 01:37:37;;;;;;;6.35;5.85;;;;;;;1.71;56.12;96150.28;4349470;32;20199;-60
2022/03/02 01:40:04;;;;;;;6.47;5.83;;;;;;;1.53;56.55;96152.87;4335113;32;20265;-59
2022/03/02 01:42:30;;;;;;;7.18;6.57;;;;;;;1.56;56.26;96147.22;4367044;32;20228;-59
2022/03/02 01:44:57;;;;;;;7.00;6.20;;;;;;;1.45;56.78;96150.56;4345023;32;20251;-60
2022/03/02 01:47:27;;;;;;;7.10;6.45;;;;;;;1.44;56.76;96142.94;4332585;32;20259;-59
2022/03/02 01:49:54;;;;;;;7.55;6.43;;;;;;;1.19;57.24;96140.34;4344807;32;20220;-60
2022/03/02 01:52:22;;;;;;;7.97;6.45;;;;;;;1.11;58.05;96132.75;4362241;32;20236;-59
2022/03/02 01:54:48;;;;;;;6.65;6.05;;;;;;;1.28;57.30;96139.84;4307380;32;20193;-60
2022/03/02 01:57:16;;;;;;;7.40;6.70;;;;;;;1.50;57.09;96124.56;4319907;32;20261;-60
2022/03/02 01:59:41;;;;;;;7.72;6.32;;;;;;;1.21;58.05;96114.81;4340138;32;20270;-60
2022/03/02 02:02:13;;;;;;;8.83;6.33;;;;;;;1.32;57.89;96124.53;4326574;32;20192;-59
2022/03/02 02:04:41;;;;;;;9.25;7.03;;;;;;;1.60;57.23;96119.66;4359446;32;20181;-59
2022/03/02 02:07:08;;;;;;;6.90;5.85;;;;;;;1.62;57.20;96112.38;4330286;32;20192;-60
2022/03/02 02:09:37;;;;;;;7.15;6.45;;;;;;;1.51;58.15;96113.09;4311917;32;20189;-59
2022/03/02 02:12:04;;;;;;;7.00;6.40;;;;;;;1.38;58.62;96118.47;4367155;32;20240;-59
2022/03/02 02:14:30;;;;;;;7.35;6.65;;;;;;;1.48;58.45;96108.28;4348455;32;20234;-60
2022/03/02 02:16:55;;;;;;;7.43;6.70;;;;;;;1.33;58.92;96106.03;4326471;32;20193;-59
2022/03/02 02:19:22;;;;;;;7.10;6.40;;;;;;;1.37;58.13;96101.19;4349788;32;20204;-59
2022/03/02 02:21:49;;;;;;;6.25;5.70;;;;;;;1.48;57.91;96092.59;4356148;32;20189;-59
2022/03/02 02:24:17;;;;;;;7.03;6.32;;;;;;;1.27;58.39;96090.41;4342019;32;20193;-61
2022/03/02 02:26:44;;;;;;;7.15;6.45;;;;;;;1.42;58.37;96092.69;4336784;32;20200;-58
2022/03/02 02:29:10;;;;;;;8.85;6.72;;;;;;;1.37;58.19;96094.12;4339966;32;20181;-60
2022/03/02 02:31:38;;;;;;;9.13;6.37;;;;;;;1.54;57.99;96090.94;4373973;32;20184;-59
2022/03/02 02:34:04;;;;;;;7.43;5.85;;;;;;;1.60;57.56;96100.53;4376673;32;20192;-58
2022/03/02 02:36:32;;;;;;;7.55;6.85;;;;;;;1.49;58.04;96093.41;4337212;32;20228;-59
2022/03/02 02:39:00;;;;;;;7.15;5.97;;;;;;;1.47;58.10;96095.44;4345437;32;20196;-60
2022/03/02 02:41:26;;;;;;;7.20;6.50;;;;;;;1.51;57.82;96096.59;4338707;32;20186;-58
2022/03/02 02:43:55;;;;;;;6.80;6.13;;;;;;;1.53;57.47;96102.41;4351711;32;20218;-60
2022/03/02 02:46:23;;;;;;;7.85;6.30;;;;;;;1.59;57.17;96094.53;4382906;32;20200;-59
2022/03/02 02:48:49;;;;;;;7.20;6.50;;;;;;;1.27;58.49;96096.44;4355026;32;20200;-60
2022/03/02 02:51:15;;;;;;;7.37;6.68;;;;;;;1.05;59.62;96092.63;4350586;32;20193;-60
2022/03/02 02:53:41;;;;;;;8.23;6.50;;;;;;;0.68;60.91;96100.34;4358271;32;20272;-60
2022/03/02 02:56:09;;;;;;;7.07;6.37;;;;;;;0.77;60.62;96087.84;4350871;32;20188;-59
2022/03/02 02:58:35;;;;;;;7.28;6.37;;;;;;;0.75;60.95;96086.44;4335292;32;20293;-59
2022/03/02 03:01:05;;;;;;;9.00;6.07;;;;;;;0.61;61.47;96085.75;4366193;32;20188;-58
2022/03/02 03:03:32;;;;;;;7.40;6.60;;;;;;;0.61;61.65;96075.31;4346527;32;20185;-59
2022/03/02 03:06:00;;;;;;;12.80;6.22;;;;;;;0.66;61.78;96068.41;4335804;32;20207;-59
2022/03/02 03:08:27;;;;;;;8.18;6.62;;;;;;;0.63;61.85;96076.66;4333040;32;20320;-60
2022/03/02 03:10:55;;;;;;;7.35;6.65;;;;;;;0.75;61.53;96062.94;4345802;32;20249;-60
2022/03/02 03:13:22;;;;;;;7.05;6.30;;;;;;;0.83;60.86;96062.69;4368385;32;20259;-60
2022/03/02 03:15:48;;;;;;;7.28;6.57;;;;;;;0.85;60.86;96063.25;4379761;32;20177;-60
2022/03/02 03:18:18;;;;;;;8.57;6.25;;;;;;;0.89;60.50;96072.25;4336582;32;20177;-59
2022/03/02 03:20:45;;;;;;;7.05;6.45;;;;;;;1.03;60.50;96069.34;4363970;32;20226;-59
2022/03/02 03:23:11;;;;;;;7.57;6.78;;;;;;;1.05;59.97;96061.28;4361125;32;20196;-59
2022/03/02 03:25:36;;;;;;;8.50;6.65;;;;;;;0.67;60.75;96075.25;4362133;32;20205;-57
2022/03/02 03:28:04;;;;;;;6.20;5.70;;;;;;;0.55;61.28;96069.13;4359511;32;20201;-59
2022/03/02 03:30:31;;;;;;;6.53;5.60;;;;;;;0.53;61.10;96076.34;4366205;32;20263;-59
2022/03/02 03:32:56;;;;;;;7.28;6.40;;;;;;;0.82;60.35;96084.59;4345028;32;20209;-60
2022/03/02 03:35:26;;;;;;;7.05;6.45;;;;;;;0.76;60.08;96075.78;4368666;32;20193;-60
2022/03/02 03:37:53;;;;;;;6.85;6.25;;;;;;;0.94;59.70;96080.25;4341229;32;20220;-60
2022/03/02 03:40:20;;;;;;;6.10;5.60;;;;;;;1.07;59.23;96079.34;4327157;32;20185;-60
2022/03/02 03:42:51;;;;;;;8.43;6.35;;;;;;;0.94;59.32;96070.63;4347209;32;20244;-60
2022/03/02 03:45:18;;;;;;;9.93;6.55;;;;;;;0.68;60.43;96071.62;4337781;32;20177;-59
2022/03/02 03:47:51;;;;;;;7.35;6.12;;;;;;;0.29;61.61;96070.09;4349752;32;20196;-60
2022/03/02 03:50:17;;;;;;;7.80;5.95;;;;;;;-0.01;62.41;96075.09;4289706;32;20240;-58
2022/03/02 03:52:44;;;;;;;6.03;5.43;;;;;;;-0.05;62.82;96070.47;4341228;32;20185;-58
2022/03/02 03:55:11;;;;;;;9.45;6.03;;;;;;;0.07;62.19;96081.03;4358451;32;20226;-59
2022/03/02 03:57:37;;;;;;;6.93;6.20;;;;;;;0.19;61.74;96077.59;4328917;32;20265;-58
2022/03/02 04:00:12;;;;;;;6.80;6.10;;;;;;;0.33;61.43;96078.28;4351704;32;20225;-58
2022/03/02 04:02:37;;;;;;;6.80;6.10;;;;;;;0.20;61.50;96073.97;4337762;33;20185;-59
2022/03/02 04:05:07;;;;;;;6.20;5.60;;;;;;;-0.03;62.19;96074.50;4333352;32;20234;-59
2022/03/02 04:07:33;;;;;;;5.82;5.30;;;;;;;0.22;61.78;96073.72;4326809;32;20204;-58
2022/03/02 04:10:03;;;;;;;8.27;6.80;;;;;;;-0.01;62.09;96066.47;4305087;33;20198;-60
2022/03/02 04:12:30;;;;;;;7.18;5.80;;;;;;;-0.24;62.91;96063.56;4326817;32;20253;-60
2022/03/02 04:15:00;;;;;;;6.32;5.78;;;;;;;-0.22;62.66;96058.94;4326625;32;20166;-60
2022/03/02 04:17:28;;;;;;;6.37;5.78;;;;;;;0.04;62.11;96057.97;4334931;32;20185;-60
2022/03/02 04:19:55;;;;;;;6.00;5.50;;;;;;;0.08;61.76;96067.00;4331692;33;20247;-58
2022/03/02 04:22:20;;;;;;;8.95;5.47;;;;;;;0.41;60.59;96054.56;4316886;32;20276;-60
2022/03/02 04:24:46;;;;;;;5.90;5.40;;;;;;;0.26;60.74;96059.25;4342133;32;20201;-59
2022/03/02 04:27:35;;;;;;;7.05;5.68;;;;;;;0.54;60.07;96053.66;4324757;32;20201;-59
2022/03/02 04:30:05;;;;;;;5.47;5.07;;;;;;;0.53;60.05;96046.84;4315535;33;20216;-59
2022/03/02 04:32:37;;;;;;;6.25;5.25;;;;;;;0.18;60.83;96043.88;4334083;32;20197;-59
2022/03/02 04:35:04;;;;;;;6.07;5.57;;;;;;;0.47;60.29;96038.06;4294293;33;20209;-60
2022/03/02 04:37:32;;;;;;;6.20;5.57;;;;;;;0.15;60.80;96033.88;4310391;33;20182;-60
2022/03/02 04:39:59;;;;;;;7.20;5.85;;;;;;;0.28;61.00;96031.97;4353912;32;20216;-60
2022/03/02 04:42:27;;;;;;;6.15;5.55;;;;;;;0.39;60.67;96025.28;4306629;32;20186;-59
2022/03/02 04:44:52;;;;;;;6.47;5.85;;;;;;;0.07;61.35;96021.87;4358635;32;20208;-59
2022/03/02 04:47:19;;;;;;;5.17;4.77;;;;;;;0.32;60.70;96014.09;4335559;32;20250;-58
2022/03/02 04:49:47;;;;;;;5.60;5.10;;;;;;;0.31;60.60;96018.50;4306200;32;20185;-57
2022/03/02 04:52:14;;;;;;;5.95;5.45;;;;;;;-0.19;61.93;96014.97;4352162;32;20189;-59
2022/03/02 04:57:29;;;;;;;6.25;5.75;;;;;;;-0.64;63.31;96023.81;4332834;32;20208;-57
2022/03/02 04:59:55;;;;;;;7.40;5.78;;;;;;;-0.67;63.99;96029.44;4353200;32;20181;-59
2022/03/02 05:02:24;;;;;;;6.13;5.53;;;;;;;-0.12;62.49;96022.78;4367400;32;20262;-58
2022/03/02 05:04:51;;;;;;;7.97;5.72;;;;;;;-0.06;61.40;96021.94;4328234;32;20263;-59
2022/03/02 05:07:17;;;;;;;6.25;5.68;;;;;;;-0.13;61.73;96019.38;4339564;32;20207;-59
2022/03/02 05:09:44;;;;;;;5.35;4.93;;;;;;;-0.06;61.45;96009.72;4362652;32;20193;-59
2022/03/02 05:12:10;;;;;;;5.85;5.35;;;;;;;0.05;60.39;96003.03;4360525;32;20200;-60
2022/03/02 05:14:37;;;;;;;5.82;5.22;;;;;;;0.13;60.72;95994.16;4336441;32;20185;-60
2022/03/02 05:17:10;;;;;;;5.57;5.07;;;;;;;0.27;60.28;95995.66;4366187;32;20245;-59
2022/03/02 05:19:36;;;;;;;5.43;4.93;;;;;;;0.05;60.91;95997.00;4351916;32;20271;-60
2022/03/02 05:22:03;;;;;;;5.87;5.37;;;;;;;0.44;59.80;95996.72;4373080;32;20189;-60
2022/03/02 05:24:31;;;;;;;5.68;5.18;;;;;;;0.39;59.50;95999.19;4357935;32;20260;-60
2022/03/02 05:26:58;;;;;;;5.28;4.72;;;;;;;0.50;59.73;96001.09;4348055;32;20219;-59
2022/03/02 05:29:23;;;;;;;5.60;5.10;;;;;;;0.65;58.89;96005.97;4359954;32;20199;-60
2022/03/02 05:31:52;;;;;;;6.10;5.20;;;;;;;0.71;58.30;96004.34;4352762;32;20208;-60
2022/03/02 05:34:17;;;;;;;7.10;5.22;;;;;;;0.69;57.93;96012.38;4325505;32;20177;-60
2022/03/02 05:36:42;;;;;;;5.63;5.10;;;;;;;0.72;58.19;96008.53;4356595;32;20262;-59
2022/03/02 05:39:09;;;;;;;6.17;4.87;;;;;;;0.73;58.18;96010.16;4361214;32;20238;-60
2022/03/02 05:41:38;;;;;;;6.35;4.45;;;;;;;0.83;57.64;96005.25;4342104;32;20185;-59
2022/03/02 05:44:08;;;;;;;5.35;4.82;;;;;;;0.90;56.95;96016.41;4358301;32;20181;-60
2022/03/02 05:46:35;;;;;;;4.87;4.37;;;;;;;0.83;56.80;96018.31;4347986;32;20229;-60
2022/03/02 05:49:01;;;;;;;5.50;5.03;;;;;;;0.93;56.54;96023.81;4315894;32;20228;-57
2022/03/02 05:51:28;;;;;;;4.68;4.30;;;;;;;1.08;55.67;96021.66;4351265;32;20193;-60
2022/03/02 05:53:56;;;;;;;5.30;4.75;;;;;;;0.90;56.59;96019.03;4350546;32;20219;-59
2022/03/02 05:56:21;;;;;;;5.30;4.90;;;;;;;0.87;56.15;96012.41;4352756;32;20238;-60
2022/03/02 05:58:47;;;;;;;10.23;5.37;;;;;;;0.68;57.28;96008.97;4358187;32;20184;-59
2022/03/02 06:01:13;;;;;;;10.00;4.97;;;;;;;0.55;58.71;96003.06;4388297;32;20188;-59
2022/03/02 06:03:41;;;;;;;5.82;4.70;;;;;;;0.55;58.82;96003.88;4380050;32;20189;-60
2022/03/02 06:06:07;;;;;;;5.93;5.05;;;;;;;0.85;57.85;96004.00;4361429;32;20184;-59
2022/03/02 06:08:33;;;;;;;4.70;4.30;;;;;;;1.00;57.11;95998.44;4362240;32;20193;-59
2022/03/02 06:10:59;;;;;;;8.90;5.07;;;;;;;0.85;57.34;95998.78;4333039;32;20190;-58
2022/03/02 06:13:26;;;;;;;5.28;4.78;;;;;;;0.78;57.75;95997.25;4341720;32;20193;-59
2022/03/02 06:15:52;;;;;;;6.20;4.15;;;;;;;0.84;57.68;95991.16;4347508;32;20200;-60
2022/03/02 06:18:19;;;;;;;6.63;4.80;;;;;;;0.56;58.16;95992.41;4320673;32;20189;-60
2022/03/02 06:21:07;;;;;;;6.35;5.60;;;;;;;0.75;58.04;95992.47;4328028;32;20271;-60
2022/03/02 06:23:33;;;;;;;5.50;4.40;;;;;;;0.45;58.86;95995.72;4314056;32;20189;-60
2022/03/02 06:26:09;;;;;;;5.57;4.97;;;;;;;0.58;58.96;95993.00;4338996;32;20261;-60
2022/03/02 06:28:34;;;;;;;6.60;5.32;;;;;;;0.83;58.18;95989.59;4370603;32;20267;-60
2022/03/02 06:31:07;;;;;;;5.50;5.00;;;;;;;0.98;57.81;95984.81;4354012;32;20279;-60
2022/03/02 06:33:34;;;;;;;5.95;4.97;;;;;;;1.07;57.60;95983.50;4326114;32;20185;-60
2022/03/02 06:36:00;;;;;;;6.03;4.93;;;;;;;1.21;56.89;95987.56;4366568;32;20174;-60
2022/03/02 06:38:27;;;;;;;5.40;4.60;;;;;;;1.33;56.10;95991.03;4340523;32;20181;-60
2022/03/02 06:41:24;;;;;;;8.48;6.22;;;;;;;1.38;56.24;95991.19;4346555;32;20193;-59
2022/03/02 06:44:02;;;;;;;6.95;4.53;;;;;;;1.44;55.39;95993.97;4343524;32;20205;-59
2022/03/02 06:47:00;;;;;;;5.37;4.78;;;;;;;1.53;55.23;96009.09;4373371;32;20234;-60
2022/03/02 06:50:00;;;;;;;5.93;5.12;;;;;;;1.52;55.61;95999.66;4365769;32;20305;-59
2022/03/02 06:52:43;;;;;;;7.62;5.10;;;;;;;1.21;56.50;96005.88;4336212;32;20194;-59
2022/03/02 06:55:15;;;;;;;4.90;4.43;;;;;;;1.36;56.56;96006.28;4332383;32;20281;-59
2022/03/02 06:57:50;;;;;;;5.78;5.12;;;;;;;1.32;56.36;96002.50;4332483;32;20236;-60
2022/03/02 07:00:17;;;;;;;6.45;4.97;;;;;;;1.41;55.58;96003.03;4344861;32;20185;-60
2022/03/02 07:03:05;;;;;;;7.60;6.18;;;;;;;1.24;56.52;96002.81;4326385;32;20194;-60
2022/03/02 07:05:33;;;;;;;5.25;4.70;;;;;;;1.34;56.43;96002.31;4348447;32;20232;-59
2022/03/02 07:08:03;;;;;;;8.05;4.72;;;;;;;1.13;56.81;96000.91;4345371;32;20201;-59
2022/03/02 07:10:36;;;;;;;7.10;4.53;;;;;;;1.46;56.41;95999.75;4346423;32;20181;-59
2022/03/02 07:13:06;;;;;;;6.70;4.78;;;;;;;1.45;56.05;95992.94;4360802;32;20185;-60
2022/03/02 07:15:43;;;;;;;7.95;4.62;;;;;;;1.28;56.77;96006.56;4344590;32;20177;-59
2022/03/02 07:18:09;;;;;;;5.20;4.72;;;;;;;1.37;55.91;96007.09;4343911;32;20193;-60
2022/03/02 07:20:47;;;;;;;6.57;4.82;;;;;;;1.57;55.60;96014.72;4348199;32;22624;-59
2022/03/02 07:23:16;;;;;;;5.65;4.90;;;;;;;1.43;55.50;96006.22;4328981;32;20178;-60
2022/03/02 07:25:44;;;;;;;9.18;4.80;;;;;;;1.43;55.63;96005.44;4295270;33;20190;-60
2022/03/02 07:28:14;;;;;;;5.18;4.75;;;;;;;1.53;55.90;96010.94;4335094;32;20193;-60
2022/03/02 07:31:00;;;;;;;5.12;4.37;;;;;;;1.51;55.80;96002.50;4338306;32;20272;-59
2022/03/02 07:33:33;;;;;;;7.32;5.55;;;;;;;1.85;54.92;95999.28;4337007;32;20204;-60
2022/03/02 07:35:59;;;;;;;11.85;5.18;;;;;;;1.84;54.97;95996.88;4332223;32;20268;-60
2022/03/02 07:38:26;;;;;;;7.30;5.37;;;;;;;1.91;55.08;95995.75;4329199;32;20236;-60
2022/03/02 07:40:53;;;;;;;8.95;5.25;;;;;;;2.21;54.66;95998.38;4338495;32;20257;-60
2022/03/02 07:43:20;;;;;;;7.13;5.50;;;;;;;2.12;54.74;95991.84;4321205;32;20193;-61
2022/03/02 07:45:48;;;;;;;8.88;5.22;;;;;;;2.18;54.32;95993.56;4336593;32;20278;-61
2022/03/02 07:48:15;;;;;;;6.85;5.00;;;;;;;2.08;54.88;95994.09;4328655;33;20214;-60
2022/03/02 07:50:42;;;;;;;6.65;5.00;;;;;;;2.32;54.04;95988.94;4284216;33;20182;-59
2022/03/02 07:53:13;;;;;;;10.75;5.40;;;;;;;2.51;53.35;95977.34;4327502;32;20243;-60
2022/03/02 07:55:46;;;;;;;10.80;5.78;;;;;;;2.52;53.27;95989.41;4346660;32;20192;-60
2022/03/02 07:58:21;;;;;;;7.75;4.65;;;;;;;2.70;52.45;95980.69;4359626;32;20268;-60
2022/03/02 08:00:48;;;;;;;11.13;5.10;;;;;;;3.74;70.32;95971.84;4314255;32;20185;-60
2022/03/02 08:03:15;;;;;;;9.33;4.30;;;;;;;4.50;71.35;95975.00;4366663;32;20296;-60
2022/03/02 08:05:46;;;;;;;8.67;5.27;;;;;;;5.00;71.47;95963.66;4338955;32;20299;-60
2022/03/02 08:08:14;;;;;;;12.43;4.97;;;;;;;5.45;68.21;95966.88;4349380;32;20279;-61
2022/03/02 08:10:44;;;;;;;9.87;4.90;;;;;;;5.49;65.48;95965.34;4333368;32;20371;-59
2022/03/02 08:13:15;;;;;;;7.80;4.77;;;;;;;5.76;65.04;95967.25;4362320;32;20291;-59
2022/03/02 08:15:46;;;;;;;8.23;5.40;;;;;;;5.84;61.12;95966.78;4359517;32;20326;-59
2022/03/02 08:18:20;;;;;;;10.77;4.93;;;;;;;5.91;61.47;95959.53;4345806;32;20288;-59
2022/03/02 08:20:49;;;;;;;7.20;4.77;;;;;;;6.13;62.32;95960.28;4354838;32;20281;-60
2022/03/02 08:23:19;;;;;;;4.80;4.40;;;;;;;6.13;60.12;95962.91;4352288;32;20315;-62
2022/03/02 08:25:54;;;;;;;5.60;4.30;;;;;;;5.99;59.91;95966.22;4366822;32;20352;-59
2022/03/02 08:28:22;;;;;;;5.90;4.73;;;;;;;6.43;60.01;95958.97;4357860;32;20295;-59
2022/03/02 08:30:54;;;;;;;4.80;4.00;;;;;;;6.54;60.96;95958.81;4349025;32;20276;-60
2022/03/02 08:33:27;;;;;;;5.03;4.30;;;;;;;6.27;57.08;95963.31;4364728;32;20292;-60
2022/03/02 08:35:56;;;;;;;6.10;4.00;;;;;;;6.66;56.44;95950.72;4352006;32;20319;-59
2022/03/02 08:38:25;;;;;;;6.27;4.40;;;;;;;6.86;51.36;95955.31;4317667;32;20313;-59
2022/03/02 08:40:55;;;;;;;8.07;4.03;;;;;;;7.11;49.36;95950.22;4357994;32;20276;-60
2022/03/02 08:43:23;;;;;;;9.47;4.47;;;;;;;7.44;50.65;95949.06;4341839;32;20309;-59
2022/03/02 08:45:51;;;;;;;6.30;4.07;;;;;;;7.99;48.60;95939.75;4330574;32;20284;-59
2022/03/02 08:48:19;;;;;;;5.13;3.90;;;;;;;8.20;49.19;95944.00;4356839;32;20301;-59
2022/03/02 08:50:46;;;;;;;10.03;4.60;;;;;;;8.00;47.34;95941.31;4344499;32;20375;-59
2022/03/02 08:53:17;;;;;;;8.83;4.90;;;;;;;8.22;46.67;95941.09;4331546;32;20309;-59
2022/03/02 08:56:07;;;;;;;6.33;4.17;;;;;;;8.48;47.58;95931.37;4343640;32;20291;-59
2022/03/02 08:58:33;;;;;;;5.80;4.17;;;;;;;8.71;46.01;95933.50;4296926;32;20344;-59
2022/03/02 09:01:19;;;;;;;13.83;4.80;;;;;;;8.15;43.92;95941.34;4332193;32;20304;-60
2022/03/02 09:03:51;;;;;;;6.00;5.50;;;;;;;8.23;43.49;95935.56;4360768;32;20216;-59
2022/03/02 09:06:21;;;;;;;9.07;4.60;;;;;;;8.44;47.00;95923.19;4334928;32;20299;-60
2022/03/02 09:08:47;;;;;;;9.37;4.77;;;;;;;8.50;45.71;95929.25;4379752;32;20296;-60
2022/03/02 09:11:15;;;;;;;5.20;3.93;;;;;;;8.38;45.80;95926.88;4371217;32;20460;-59
2022/03/02 09:13:43;;;;;;;10.67;4.70;;;;;;;8.60;46.74;95921.31;4356956;32;20280;-59
2022/03/02 09:16:10;;;;;;;11.17;5.10;;;;;;;8.63;45.58;95912.84;4365837;32;20329;-58
2022/03/02 09:18:42;;;;;;;10.93;4.47;;;;;;;8.52;45.56;95914.69;4362537;32;20360;-59
2022/03/02 09:21:11;;;;;;;10.13;4.80;;;;;;;8.70;47.05;95910.75;4345855;32;20426;-59
2022/03/02 09:23:40;;;;;;;7.00;5.33;;;;;;;8.54;46.67;95911.78;4351337;32;20351;-59
2022/03/02 09:26:30;;;;;;;7.53;5.40;;;;;;;8.11;44.86;95919.12;4326234;32;20282;-59
2022/03/02 09:28:57;;;;;;;8.50;4.90;;;;;;;8.60;43.19;95910.72;4334929;32;20283;-59
2022/03/02 09:31:35;;;;;;;10.00;5.30;;;;;;;8.15;45.32;95912.28;4360129;32;20293;-59
2022/03/02 09:34:07;;;;;;;6.90;5.50;;;;;;;8.60;46.15;95914.16;4362992;32;20285;-59
2022/03/02 09:36:38;;;;;;;7.33;5.70;;;;;;;8.61;45.73;95907.03;4344894;32;20294;-59
2022/03/02 09:39:15;;;;;;;7.87;5.73;;;;;;;8.71;43.08;95904.38;4307409;32;20360;-59
2022/03/02 09:42:10;;;;;;;11.00;5.47;;;;;;;8.88;46.42;95907.53;4355056;32;20367;-59
2022/03/02 09:45:03;;;;;;;8.53;5.73;;;;;;;8.94;46.53;95911.72;4344638;32;20365;-59
2022/03/02 09:47:43;;;;;;;8.33;5.13;;;;;;;8.68;45.09;95915.50;4363703;32;20360;-59
2022/03/02 09:50:14;;;;;;;11.57;6.43;;;;;;;8.70;45.55;95923.16;4313086;32;20274;-59
2022/03/02 09:52:42;;;;;;;10.57;6.63;;;;;;;8.58;46.78;95918.94;4333067;32;20294;-59
2022/03/02 09:55:14;;;;;;;10.17;6.90;;;;;;;8.55;47.72;95913.38;4285684;33;20421;-59
2022/03/02 09:57:47;;;;;;;9.90;7.23;;;;;;;7.92;49.44;95912.78;4290109;33;20311;-58
2022/03/02 10:00:18;;;;;;;8.67;7.17;;;;;;;7.23;43.97;95916.53;4325609;32;20274;-58
2022/03/02 10:02:49;;;;;;;8.90;8.00;;;;;;;6.02;43.71;95924.38;4360043;32;20272;-58
2022/03/02 10:05:20;;;;;;;10.07;7.50;;;;;;;5.90;44.26;95928.97;4337496;32;20270;-58
2022/03/02 10:08:09;;;;;;;12.23;7.93;;;;;;;5.60;45.09;95923.37;4321807;32;20353;-59
2022/03/02 10:10:39;;;;;;;12.00;8.20;;;;;;;5.55;45.43;95923.31;4312749;32;20274;-57
2022/03/02 10:13:10;;;;;;;11.40;8.37;;;;;;;5.36;45.77;95926.28;4312126;32;20285;-58
2022/03/02 10:15:39;;;;;;;8.83;6.77;;;;;;;5.27;45.89;95921.66;4347726;32;20376;-57
2022/03/02 10:18:07;;;;;;;8.90;7.10;;;;;;;5.34;45.89;95917.81;4345064;32;20300;-58
2022/03/02 10:20:41;;;;;;;7.17;6.47;;;;;;;5.19;46.50;95909.75;4312771;32;20281;-58
2022/03/02 10:23:25;;;;;;;7.60;6.40;;;;;;;5.23;46.55;95916.09;4318920;32;20352;-58
2022/03/02 10:26:11;;;;;;;7.70;5.93;;;;;;;5.23;46.76;95910.84;4259217;32;20278;-59
2022/03/02 10:29:00;;;;;;;10.50;5.90;;;;;;;5.03;46.68;95915.84;4257654;33;20362;-58
2022/03/02 10:32:00;;;;;;;7.80;6.37;;;;;;;5.24;46.83;95914.25;4309243;32;20332;-59
2022/03/02 10:34:36;;;;;;;8.60;6.10;;;;;;;5.40;46.50;95916.06;4332465;32;20335;-57
2022/03/02 10:37:35;;;;;;;9.80;6.07;;;;;;;5.42;45.66;95912.12;4343193;32;20328;-56
2022/03/02 10:40:31;;;;;;;6.57;5.60;;;;;;;5.37;45.60;95909.44;4307544;32;20320;-57
2022/03/02 10:43:04;;;;;;;6.83;5.90;;;;;;;5.67;44.77;95905.53;4299114;32;20277;-54
2022/03/02 10:45:51;;;;;;;6.27;5.23;;;;;;;5.53;44.52;95902.50;4301849;32;20274;-58
2022/03/02 10:48:38;;;;;;;5.80;5.27;;;;;;;5.80;44.17;95910.44;4319494;32;20334;-56
2022/03/02 10:51:24;;;;;;;5.57;5.10;;;;;;;5.85;43.45;95905.19;4328945;32;20289;-56
2022/03/02 10:53:52;;;;;;;5.60;5.10;;;;;;;5.83;42.91;95909.91;4333121;32;20265;-54
2022/03/02 10:56:20;;;;;;;8.07;6.37;;;;;;;5.65;43.47;95913.69;4301751;32;20289;-57
2022/03/02 10:59:16;;;;;;;10.87;5.20;;;;;;;5.73;43.38;95902.72;4317103;32;20289;-55
2022/03/02 11:01:45;;;;;;;6.20;4.33;;;;;;;5.80;43.42;95895.44;4293359;32;20380;-57
2022/03/02 11:04:11;;;;;;;6.50;4.90;;;;;;;5.89;43.10;95895.00;4360649;32;20282;-51
2022/03/02 11:06:37;;;;;;;8.30;5.17;;;;;;;5.95;43.18;95891.38;4344802;32;20272;-57
2022/03/02 11:09:06;;;;;;;7.50;5.13;;;;;;;5.95;43.28;95886.91;4320508;32;20193;-55
2022/03/02 11:11:53;;;;;;;5.60;5.00;;;;;;;5.99;43.50;95881.94;4361400;32;20344;-56
2022/03/02 11:14:23;;;;;;;7.07;5.13;;;;;;;5.90;43.30;95871.06;4346437;32;20277;-52
2022/03/02 11:16:50;;;;;;;6.40;5.13;;;;;;;6.02;42.97;95860.38;4338364;32;20323;-55
2022/03/02 11:19:16;;;;;;;10.37;6.20;;;;;;;6.32;42.33;95857.97;4343326;32;20177;-57
2022/03/02 11:21:44;;;;;;;6.77;5.77;;;;;;;6.26;42.00;95860.81;4352640;32;20342;-58
2022/03/02 11:24:17;;;;;;;6.57;5.83;;;;;;;6.28;42.19;95862.16;4351815;32;20298;-54
2022/03/02 11:26:44;;;;;;;8.57;5.60;;;;;;;6.30;42.47;95860.06;4352738;32;20343;-53
2022/03/02 11:29:17;;;;;;;7.83;4.70;;;;;;;6.41;42.40;95858.31;4349115;32;20306;-52
2022/03/02 11:31:56;;;;;;;8.20;4.73;;;;;;;6.58;42.07;95858.94;4348940;32;20292;-55
2022/03/02 11:34:27;;;;;;;5.67;4.70;;;;;;;6.58;41.03;95858.16;4349783;32;20324;-55
2022/03/02 11:36:55;;;;;;;5.17;4.60;;;;;;;6.48;40.49;95849.13;4349494;32;20333;-56
2022/03/02 11:39:23;;;;;;;6.07;4.47;;;;;;;6.60;40.51;95848.94;4352824;32;20320;-55
2022/03/02 11:41:55;;;;;;;4.87;4.47;;;;;;;6.78;39.78;95853.00;4346396;32;20300;-55
2022/03/02 11:44:44;;;;;;;5.27;4.87;;;;;;;6.63;39.18;95850.28;4341330;32;20347;-55
2022/03/02 11:47:20;;;;;;;9.93;4.73;;;;;;;6.90;39.41;95840.37;4351841;32;20277;-54
2022/03/02 11:49:51;;;;;;;5.37;4.87;;;;;;;7.12;39.95;95850.75;4349958;32;20325;-54
2022/03/02 11:52:43;;;;;;;5.40;4.63;;;;;;;7.09;40.23;95848.63;4356301;32;20326;-57
2022/03/02 11:55:12;;;;;;;6.37;4.90;;;;;;;7.11;40.38;95844.69;4348983;32;20277;-56
2022/03/02 11:57:46;;;;;;;5.20;4.70;;;;;;;7.45;40.07;95831.09;4353204;32;20292;-55
2022/03/02 12:00:13;;;;;;;7.37;4.87;;;;;;;7.56;39.82;95830.06;4366688;32;20328;-55